Time;durP1;ratioP1;P1;durP2;ratioP2;P2;SDS_P1;SDS_P2;PMS_P1;PMS_P2;Temp;Humidity;BMP_temperature;BMP_pressure;BME280_temperature;BME280_humidity;BME280_pressure;Samples;Min_cycle;Max_cycle;Signal;HPM_P1;HPM_P2
2022/01/15 00:03:29;;;;;;;28.15;13.60;;;;;;;2.69;90.61;102134.16;8176226;35;20329;-78
2022/01/15 00:08:33;;;;;;;27.92;13.40;;;;;;;2.72;90.50;102147.41;8175287;35;20187;-78
2022/01/15 00:13:38;;;;;;;32.88;15.50;;;;;;;2.53;91.28;102141.56;8176930;35;20190;-78
2022/01/15 00:18:46;;;;;;;24.88;13.95;;;;;;;2.86;90.28;102140.03;8177467;35;20183;-78
2022/01/15 00:23:49;;;;;;;36.50;15.95;;;;;;;2.93;90.11;102131.00;8195083;35;20247;-77
2022/01/15 00:28:53;;;;;;;28.85;13.90;;;;;;;2.89;90.21;102137.31;8185013;35;20171;-77
2022/01/15 00:33:57;;;;;;;30.80;15.63;;;;;;;2.92;89.78;102120.44;8203774;35;21465;-77
2022/01/15 00:39:00;;;;;;;34.20;14.68;;;;;;;3.02;90.12;102125.53;8182874;35;20248;-76
2022/01/15 00:44:03;;;;;;;30.95;14.15;;;;;;;3.05;89.70;102130.75;8180168;35;20198;-77
2022/01/15 00:49:08;;;;;;;30.90;14.50;;;;;;;2.93;89.53;102122.16;8195903;35;20223;-77
2022/01/15 00:54:11;;;;;;;29.58;13.82;;;;;;;2.92;89.94;102109.81;8183033;35;20164;-75
2022/01/15 00:59:17;;;;;;;31.00;15.20;;;;;;;2.97;89.56;102113.25;8182875;35;20184;-78
2022/01/15 01:04:22;;;;;;;31.45;15.02;;;;;;;2.99;89.43;102101.69;8175549;35;21190;-78
2022/01/15 01:09:32;;;;;;;33.70;16.40;;;;;;;3.01;89.63;102093.69;8175107;35;20340;-78
2022/01/15 01:20:09;;;;;;;38.47;17.05;;;;;;;2.95;89.71;102093.81;8174491;35;20160;-77
2022/01/15 01:25:13;;;;;;;37.42;16.90;;;;;;;2.88;89.70;102084.22;8185828;35;20191;-76
2022/01/15 01:30:21;;;;;;;35.53;15.48;;;;;;;2.89;89.84;102093.97;8187049;35;20234;-77
2022/01/15 01:35:37;;;;;;;38.92;18.45;;;;;;;2.84;89.94;102088.75;8185711;35;20345;-78
2022/01/15 01:40:43;;;;;;;37.20;17.63;;;;;;;3.00;89.68;102081.31;8192614;35;20254;-78
2022/01/15 01:45:52;;;;;;;47.53;18.27;;;;;;;2.98;89.66;102072.50;8187276;35;20410;-77
2022/01/15 01:50:56;;;;;;;42.22;18.10;;;;;;;2.89;89.62;102070.94;8174350;35;20234;-78
2022/01/15 01:55:59;;;;;;;46.83;20.00;;;;;;;2.87;89.76;102067.44;8171783;35;20145;-77
2022/01/15 02:01:02;;;;;;;42.92;17.77;;;;;;;2.97;89.84;102058.38;8189640;35;20183;-78
2022/01/15 02:06:07;;;;;;;44.90;20.55;;;;;;;2.99;89.72;102053.00;8178978;35;20870;-78
2022/01/15 02:11:11;;;;;;;45.13;19.10;;;;;;;3.04;89.56;102062.63;8180980;35;21020;-78
2022/01/15 02:16:15;;;;;;;53.75;19.17;;;;;;;3.03;89.61;102057.34;8177577;35;20267;-78
2022/01/15 02:26:40;;;;;;;49.42;19.60;;;;;;;3.03;89.45;102036.97;8174738;35;20183;-78
2022/01/15 02:31:44;;;;;;;42.15;18.38;;;;;;;3.07;89.62;102037.78;8173120;35;20710;-78
2022/01/15 02:36:49;;;;;;;45.05;20.92;;;;;;;3.06;89.46;102036.91;8173801;35;21576;-77
2022/01/15 02:41:52;;;;;;;42.38;18.90;;;;;;;3.00;89.25;102023.78;8173232;35;20195;-76
2022/01/15 02:52:17;;;;;;;41.70;18.42;;;;;;;3.08;89.57;102020.94;8194151;35;20182;-78
2022/01/15 02:57:20;;;;;;;46.33;19.60;;;;;;;3.08;89.40;102023.59;8193268;35;20223;-78
2022/01/15 03:02:25;;;;;;;47.60;18.75;;;;;;;3.09;89.57;102008.53;8171896;35;20148;-77
2022/01/15 03:07:34;;;;;;;47.65;20.63;;;;;;;3.15;89.64;101995.97;8199084;35;20269;-77
2022/01/15 03:12:37;;;;;;;47.85;19.63;;;;;;;3.20;89.56;101990.56;8196396;35;20371;-78
2022/01/15 03:17:40;;;;;;;43.33;18.80;;;;;;;3.19;89.64;101983.50;8175793;35;20558;-77
2022/01/15 03:22:47;;;;;;;46.33;19.75;;;;;;;3.15;89.09;101988.00;8174004;35;20979;-77
2022/01/15 03:27:50;;;;;;;39.38;17.70;;;;;;;3.11;89.08;101983.69;8174258;35;20148;-77
2022/01/15 03:32:55;;;;;;;35.00;17.15;;;;;;;3.11;89.42;101986.34;8175291;35;20198;-78
2022/01/15 03:38:00;;;;;;;36.70;16.13;;;;;;;3.06;88.92;101967.00;8176575;35;20160;-77
2022/01/15 03:43:05;;;;;;;35.10;16.17;;;;;;;2.96;88.93;101971.69;8196339;35;20207;-77
2022/01/15 03:48:08;;;;;;;32.33;16.35;;;;;;;3.05;89.22;101974.09;8175904;35;20202;-77
2022/01/15 03:53:13;;;;;;;36.22;17.83;;;;;;;3.16;89.32;101970.31;8176384;35;21718;-77
2022/01/15 03:58:16;;;;;;;37.00;18.92;;;;;;;3.14;89.01;101969.47;8176658;35;20295;-78
2022/01/15 04:03:22;;;;;;;34.28;17.25;;;;;;;3.04;88.65;101977.66;8197091;35;20195;-77
2022/01/15 04:08:27;;;;;;;39.78;18.63;;;;;;;2.96;88.72;101971.69;8176854;35;20948;-77
2022/01/15 04:13:30;;;;;;;39.92;17.30;;;;;;;2.95;88.85;101950.47;8175126;35;20250;-77
2022/01/15 04:18:39;;;;;;;29.17;15.70;;;;;;;3.02;88.72;101963.56;8175371;35;20167;-77
2022/01/15 04:23:44;;;;;;;36.58;17.92;;;;;;;3.11;88.83;101974.84;8175862;35;20270;-78
2022/01/15 04:28:47;;;;;;;37.38;17.67;;;;;;;3.13;88.76;101957.13;8174185;35;20262;-77
2022/01/15 04:33:50;;;;;;;40.40;17.27;;;;;;;3.17;88.95;101964.94;8175676;35;21938;-77
2022/01/15 04:38:54;;;;;;;37.65;17.73;;;;;;;3.03;88.55;101962.63;8173798;35;21471;-78
2022/01/15 04:43:57;;;;;;;38.10;17.98;;;;;;;3.04;88.63;101960.84;8174200;35;20191;-77
2022/01/15 04:49:02;;;;;;;36.05;16.92;;;;;;;3.04;88.29;101960.84;8174315;35;20156;-78
2022/01/15 04:54:08;;;;;;;34.78;17.17;;;;;;;3.00;88.71;101962.72;8175419;35;20745;-78
2022/01/15 04:59:11;;;;;;;35.95;16.75;;;;;;;3.08;88.66;101962.53;8174100;35;21023;-78
2022/01/15 05:04:14;;;;;;;34.05;16.20;;;;;;;3.13;88.60;101965.06;8194335;35;20479;-77
2022/01/15 05:09:19;;;;;;;42.65;17.95;;;;;;;3.18;88.48;101960.50;8193797;35;20470;-78
2022/01/15 05:14:24;;;;;;;35.88;17.00;;;;;;;3.10;88.38;101955.41;8175383;35;20279;-78
2022/01/15 05:19:28;;;;;;;38.10;16.35;;;;;;;3.08;88.22;101951.91;8173461;35;20226;-78
2022/01/15 05:24:33;;;;;;;37.78;17.55;;;;;;;3.11;88.63;101956.28;8193683;35;20245;-78
2022/01/15 05:29:36;;;;;;;36.80;16.55;;;;;;;3.13;87.95;101952.66;8183708;35;20575;-78
2022/01/15 05:34:40;;;;;;;34.08;16.25;;;;;;;3.18;88.69;101947.22;8192448;35;20221;-78
2022/01/15 05:39:45;;;;;;;39.65;17.80;;;;;;;3.17;88.63;101943.69;8177886;35;20140;-77
2022/01/15 05:44:48;;;;;;;40.95;18.98;;;;;;;3.23;88.68;101926.72;8190863;35;20195;-78
2022/01/15 05:49:59;;;;;;;39.63;17.30;;;;;;;3.27;88.71;101934.59;8189525;35;20470;-77
2022/01/15 05:55:04;;;;;;;43.08;19.60;;;;;;;3.27;88.60;101929.28;8189090;35;20228;-77
2022/01/15 06:00:09;;;;;;;45.00;19.55;;;;;;;3.25;88.68;101925.78;8175294;35;20570;-78
2022/01/15 06:05:15;;;;;;;45.20;19.40;;;;;;;3.25;88.46;101925.78;8175076;35;20187;-78
2022/01/15 06:10:20;;;;;;;45.08;18.25;;;;;;;3.23;88.47;101929.38;8175366;35;20697;-77
2022/01/15 06:15:23;;;;;;;46.67;19.15;;;;;;;3.27;88.44;101923.09;8175170;35;20207;-78
2022/01/15 06:20:32;;;;;;;48.65;21.52;;;;;;;3.29;88.24;101931.88;8174801;35;20195;-78
2022/01/15 06:25:37;;;;;;;49.60;21.40;;;;;;;3.24;88.38;101918.75;8174711;35;20235;-78
2022/01/15 06:30:40;;;;;;;54.33;21.55;;;;;;;3.19;88.28;101919.78;8174199;35;20294;-78
2022/01/15 06:35:46;;;;;;;49.35;20.30;;;;;;;3.16;88.10;101918.06;8174275;35;20274;-78
2022/01/15 06:40:50;;;;;;;48.10;21.23;;;;;;;3.22;88.28;101915.25;8175421;35;20199;-77
2022/01/15 06:45:53;;;;;;;52.65;23.83;;;;;;;3.15;88.26;101913.66;8174180;35;20187;-78
2022/01/15 06:50:57;;;;;;;44.25;20.25;;;;;;;3.16;88.11;101896.81;8176903;35;20622;-78
2022/01/15 06:56:01;;;;;;;39.38;17.98;;;;;;;3.15;88.09;101903.03;8177109;35;20195;-77
2022/01/15 07:01:04;;;;;;;45.50;19.67;;;;;;;3.12;88.36;101899.59;8179275;35;20356;-77
2022/01/15 07:06:07;;;;;;;40.28;18.65;;;;;;;3.10;88.08;101894.31;8171636;35;20216;-79
2022/01/15 07:11:12;;;;;;;46.38;19.88;;;;;;;3.12;88.12;101897.78;8177930;35;20213;-77
2022/01/15 07:16:15;;;;;;;48.17;20.30;;;;;;;3.08;88.04;101898.81;8179052;35;20196;-78
2022/01/15 07:21:18;;;;;;;43.33;18.95;;;;;;;3.10;88.19;101898.75;8177749;35;20222;-77
2022/01/15 07:26:22;;;;;;;48.35;19.88;;;;;;;3.12;88.22;101905.75;8177886;35;20187;-78
2022/01/15 07:31:28;;;;;;;15.00;6.40;;;;;;;3.20;88.07;101906.44;8177999;35;20141;-78
2022/01/15 07:36:31;;;;;;;75.50;23.35;;;;;;;3.49;88.46;101908.31;8179728;35;20159;-79
2022/01/15 07:41:36;;;;;;;71.63;27.83;;;;;;;3.65;88.13;101898.16;8211265;35;20154;-77
2022/01/15 07:46:42;;;;;;;76.13;27.55;;;;;;;3.69;87.90;101899.78;8208069;35;20254;-78
2022/01/15 07:51:45;;;;;;;67.85;24.50;;;;;;;3.71;87.90;101903.28;8178703;35;20195;-79
2022/01/15 07:56:54;;;;;;;54.25;23.55;;;;;;;3.73;87.46;101896.16;8181172;35;20222;-79
2022/01/15 08:01:57;;;;;;;44.75;19.15;;;;;;;3.67;87.52;101896.31;8180749;35;20263;-78
2022/01/15 08:07:04;;;;;;;40.55;18.05;;;;;;;3.58;87.45;101898.34;8181747;35;20160;-78
2022/01/15 08:12:09;;;;;;;40.90;20.13;;;;;;;3.49;87.42;101900.34;8179265;35;20223;-79
2022/01/15 08:17:15;;;;;;;33.30;17.13;;;;;;;3.44;87.14;101896.09;8180030;35;20554;-78
2022/01/15 08:22:18;;;;;;;39.60;16.90;;;;;;;3.38;86.91;101897.13;8180672;35;20576;-79
2022/01/15 08:27:23;;;;;;;38.55;16.63;;;;;;;3.43;87.42;101900.53;8183709;35;20482;-78
2022/01/15 08:32:26;;;;;;;38.28;17.23;;;;;;;3.46;87.43;101903.09;8189248;35;20198;-80
2022/01/15 08:37:29;;;;;;;38.03;16.60;;;;;;;3.55;87.20;101899.31;8208350;35;20199;-77
2022/01/15 08:42:34;;;;;;;37.65;17.50;;;;;;;3.60;87.07;101893.88;8193170;35;20214;-80
2022/01/15 08:47:39;;;;;;;38.88;17.13;;;;;;;3.64;87.27;101895.53;8180809;35;20282;-80
2022/01/15 08:52:43;;;;;;;40.45;20.70;;;;;;;3.70;87.40;101896.25;8179422;35;20281;-80
2022/01/15 08:57:48;;;;;;;31.55;15.63;;;;;;;3.77;87.22;101894.25;8180559;35;20504;-78
2022/01/15 09:02:51;;;;;;;32.58;15.88;;;;;;;3.81;87.04;101892.38;8181544;35;20282;-80
2022/01/15 09:07:56;;;;;;;29.38;16.05;;;;;;;3.87;87.26;101885.13;8184348;35;20475;-79
2022/01/15 09:13:01;;;;;;;29.63;14.43;;;;;;;3.89;86.67;101893.03;8178503;35;20284;-79
2022/01/15 09:18:15;;;;;;;30.42;16.50;;;;;;;3.90;86.29;101892.13;8180278;35;20200;-80
2022/01/15 09:23:18;;;;;;;27.38;16.00;;;;;;;3.69;85.67;101891.81;8174690;35;20209;-77
2022/01/15 09:33:43;;;;;;;28.27;15.18;;;;;;;4.01;86.09;101889.16;8185291;35;22066;-79
2022/01/15 09:38:46;;;;;;;30.30;15.90;;;;;;;4.10;86.24;101875.56;8183780;35;20461;-78
2022/01/15 09:43:52;;;;;;;30.73;16.20;;;;;;;4.25;86.46;101868.91;8184924;35;20247;-78
2022/01/15 09:48:58;;;;;;;29.92;15.07;;;;;;;4.37;86.18;101872.06;8204602;35;20203;-78
2022/01/15 09:54:01;;;;;;;26.55;13.18;;;;;;;4.38;85.38;101863.16;8184939;35;20457;-79
2022/01/15 09:59:06;;;;;;;29.75;14.68;;;;;;;4.44;85.76;101867.41;8195725;35;20235;-79
2022/01/15 10:04:09;;;;;;;27.80;14.40;;;;;;;4.54;86.13;101862.69;8184956;35;20270;-78
2022/01/15 10:09:12;;;;;;;29.65;14.85;;;;;;;4.61;85.96;101857.09;8182049;35;20270;-79
2022/01/15 10:14:30;;;;;;;26.48;14.15;;;;;;;4.61;84.55;101841.13;8182247;35;20616;-79
2022/01/15 10:19:35;;;;;;;27.58;13.82;;;;;;;4.69;85.02;101843.56;8179295;35;20294;-78
2022/01/15 10:24:41;;;;;;;19.00;13.35;;;;;;;4.80;84.94;101846.72;8183710;35;20850;-78
2022/01/15 10:29:53;;;;;;;20.10;12.10;;;;;;;4.78;84.13;101843.22;8203639;35;20525;-78
2022/01/15 10:34:58;;;;;;;20.67;12.32;;;;;;;4.79;83.13;101834.31;8182987;35;20578;-79
2022/01/15 10:40:05;;;;;;;22.27;13.65;;;;;;;4.95;83.49;101836.47;8185179;35;20673;-79
2022/01/15 10:45:17;;;;;;;21.25;13.20;;;;;;;5.12;83.74;101834.09;8183495;35;20241;-78
2022/01/15 10:50:22;;;;;;;21.90;13.25;;;;;;;5.36;83.68;101824.38;8182025;35;20266;-79
2022/01/15 10:55:29;;;;;;;18.33;11.65;;;;;;;5.48;82.63;101813.25;8183843;35;20861;-80
2022/01/15 11:00:40;;;;;;;16.90;11.05;;;;;;;5.61;83.32;101804.81;8182563;35;21627;-79
2022/01/15 11:05:48;;;;;;;15.77;10.82;;;;;;;5.57;81.10;101806.72;8178906;35;20160;-79
2022/01/15 11:10:54;;;;;;;17.02;10.32;;;;;;;5.51;79.17;101793.59;8179290;35;20191;-77
2022/01/15 11:16:04;;;;;;;17.30;10.65;;;;;;;5.48;78.29;101783.94;8194857;35;20152;-79
2022/01/15 11:21:09;;;;;;;15.38;10.80;;;;;;;5.44;78.30;101777.00;8206818;35;20198;-79
2022/01/15 11:26:16;;;;;;;13.48;9.80;;;;;;;5.47;77.97;101782.19;8200630;35;20149;-79
2022/01/15 11:31:26;;;;;;;14.45;8.35;;;;;;;5.60;78.66;101774.63;8184085;35;21528;-79
2022/01/15 11:36:34;;;;;;;13.73;9.23;;;;;;;5.68;78.57;101771.66;8182344;35;20907;-79
2022/01/15 11:41:43;;;;;;;14.43;8.68;;;;;;;5.66;78.90;101774.38;8182855;35;20204;-79
2022/01/15 11:46:51;;;;;;;14.70;9.35;;;;;;;5.63;78.74;101769.16;8180738;35;20213;-79
2022/01/15 11:51:56;;;;;;;15.77;9.75;;;;;;;5.54;77.84;101760.63;8201095;35;20140;-80
2022/01/15 11:57:04;;;;;;;14.65;9.35;;;;;;;5.42;77.47;101762.84;8181636;35;21929;-78
2022/01/15 12:02:35;;;;;;;12.95;8.30;;;;;;;5.23;77.71;101748.47;8181846;35;20242;-78
2022/01/15 12:07:38;;;;;;;16.63;9.07;;;;;;;5.05;77.69;101740.25;8175498;35;20291;-80
2022/01/15 12:12:45;;;;;;;13.18;8.07;;;;;;;5.08;77.90;101735.72;8198020;35;20151;-78
2022/01/15 12:17:59;;;;;;;10.10;6.82;;;;;;;5.13;77.24;101723.97;8188194;35;20163;-78
2022/01/15 12:23:22;;;;;;;13.18;7.20;;;;;;;4.96;75.81;101729.00;8222451;35;20172;-76
2022/01/15 12:28:28;;;;;;;10.48;6.15;;;;;;;4.97;75.73;101709.44;8196772;35;20262;-77
2022/01/15 12:33:35;;;;;;;12.38;7.47;;;;;;;5.04;76.96;101706.53;8191372;35;20246;-79
2022/01/15 12:38:39;;;;;;;11.52;7.07;;;;;;;4.96;76.17;101695.25;8181717;35;20780;-77
2022/01/15 12:43:43;;;;;;;12.00;7.70;;;;;;;4.93;76.69;101692.69;8200602;35;20278;-78
2022/01/15 12:48:50;;;;;;;13.93;7.20;;;;;;;4.96;76.37;101689.06;8180122;35;20239;-78
2022/01/15 12:53:55;;;;;;;9.90;7.25;;;;;;;4.97;77.23;101689.00;8182673;35;20732;-78
2022/01/15 12:58:58;;;;;;;8.15;5.60;;;;;;;4.85;76.09;101678.78;8184124;35;20764;-78
2022/01/15 13:04:11;;;;;;;7.93;5.65;;;;;;;4.86;76.42;101680.56;8179119;35;20290;-80
2022/01/15 13:09:15;;;;;;;12.55;6.82;;;;;;;4.66;75.85;101667.94;8201555;35;20237;-81
2022/01/15 13:14:20;;;;;;;9.82;6.13;;;;;;;4.70;76.26;101676.72;8184357;35;21005;-78
2022/01/15 13:19:25;;;;;;;10.90;7.47;;;;;;;4.73;76.81;101669.47;8181602;35;20526;-79
2022/01/15 13:24:28;;;;;;;12.57;7.90;;;;;;;4.72;76.56;101675.72;8201314;35;20206;-79
2022/01/15 13:29:39;;;;;;;12.35;7.22;;;;;;;4.53;76.85;101666.66;8181405;35;21112;-80
2022/01/15 13:34:48;;;;;;;12.63;7.03;;;;;;;4.43;76.97;101655.47;8180059;35;20493;-79
2022/01/15 13:39:52;;;;;;;11.80;7.00;;;;;;;4.46;77.82;101636.72;8180650;35;20876;-78
2022/01/15 13:45:05;;;;;;;10.95;6.97;;;;;;;4.51;77.14;101624.13;8199285;35;20322;-78
2022/01/15 13:55:46;;;;;;;10.10;6.03;;;;;;;4.23;75.86;101608.28;8182891;35;20140;-78
2022/01/15 14:00:49;;;;;;;10.88;6.15;;;;;;;4.12;76.16;101606.00;8203331;35;20187;-79
2022/01/15 14:06:00;;;;;;;12.27;6.65;;;;;;;4.00;76.45;101594.91;8196892;35;20175;-78
2022/01/15 14:11:10;;;;;;;9.18;6.75;;;;;;;4.13;77.08;101593.56;8195233;35;20224;-78
2022/01/15 14:16:25;;;;;;;11.85;7.18;;;;;;;4.20;76.88;101596.84;8183247;35;20911;-78
2022/01/15 14:21:44;;;;;;;10.60;6.57;;;;;;;4.16;76.67;101588.13;8202935;35;20198;-78
2022/01/15 14:26:50;;;;;;;11.48;6.43;;;;;;;4.09;76.78;101586.63;8201522;35;20199;-78
2022/01/15 14:31:57;;;;;;;10.00;6.78;;;;;;;4.08;77.36;101582.22;8200706;35;20471;-77
2022/01/15 14:37:02;;;;;;;13.15;8.07;;;;;;;3.80;76.73;101572.53;8185992;35;21640;-79
2022/01/15 14:42:05;;;;;;;10.20;6.60;;;;;;;3.85;77.30;101565.25;8205829;35;20198;-78
2022/01/15 14:47:09;;;;;;;11.02;6.88;;;;;;;3.90;77.78;101578.41;8201015;35;20187;-78
2022/01/15 14:52:13;;;;;;;12.25;7.38;;;;;;;3.81;77.01;101563.63;8188073;35;20152;-78
2022/01/15 14:57:16;;;;;;;8.95;6.32;;;;;;;3.68;77.51;101567.63;8185125;35;21307;-78
2022/01/15 15:02:19;;;;;;;15.13;7.28;;;;;;;3.63;77.48;101556.28;8187228;35;20534;-79
2022/01/15 15:07:24;;;;;;;11.98;7.72;;;;;;;3.56;77.70;101544.13;8176285;35;20176;-77
2022/01/15 15:12:34;;;;;;;13.38;7.80;;;;;;;3.51;77.89;101536.28;8179282;35;20203;-77
2022/01/15 15:17:41;;;;;;;18.13;8.25;;;;;;;3.46;78.12;101531.16;8178800;35;20254;-77
2022/01/15 15:22:47;;;;;;;14.43;8.52;;;;;;;3.38;78.23;101522.56;8178416;35;20910;-78
2022/01/15 15:27:52;;;;;;;15.23;8.45;;;;;;;3.35;78.69;101517.34;8185993;35;20861;-78
2022/01/15 15:32:55;;;;;;;16.20;10.20;;;;;;;3.09;78.65;101504.03;8193830;35;20163;-78
2022/01/15 15:38:00;;;;;;;14.07;8.70;;;;;;;3.19;78.64;101500.19;8184760;35;20256;-78
2022/01/15 15:43:03;;;;;;;17.35;10.38;;;;;;;3.22;78.86;101495.63;8179848;35;20226;-78
2022/01/15 15:48:07;;;;;;;29.83;14.88;;;;;;;3.17;79.08;101489.59;8178775;35;20488;-79
2022/01/15 15:53:11;;;;;;;26.02;12.85;;;;;;;3.13;79.26;101492.41;8184564;35;20345;-78
2022/01/15 15:58:18;;;;;;;23.08;10.90;;;;;;;3.06;79.64;101505.00;8182041;35;20175;-80
2022/01/15 16:03:21;;;;;;;19.15;10.13;;;;;;;3.01;79.47;101491.00;8182755;35;20590;-79
2022/01/15 16:08:26;;;;;;;19.73;11.25;;;;;;;2.94;79.58;101500.09;8184857;35;20224;-79
2022/01/15 16:13:29;;;;;;;22.75;12.00;;;;;;;2.94;79.72;101495.66;8182963;35;20333;-78
2022/01/15 16:18:35;;;;;;;20.13;11.30;;;;;;;2.91;79.65;101494.84;8181195;35;20202;-78
2022/01/15 16:23:42;;;;;;;17.73;11.35;;;;;;;2.84;79.72;101491.53;8170901;35;21628;-77
2022/01/15 16:28:45;;;;;;;17.52;8.93;;;;;;;2.79;79.89;101494.31;8166722;35;20202;-77
2022/01/15 16:33:48;;;;;;;20.45;11.77;;;;;;;2.75;80.21;101499.81;8187655;35;21072;-77
2022/01/15 16:38:53;;;;;;;22.83;11.20;;;;;;;2.70;80.29;101499.94;8172451;35;20164;-76
2022/01/15 16:43:56;;;;;;;16.95;9.60;;;;;;;2.75;80.45;101505.97;8172179;35;20220;-77
2022/01/15 16:49:03;;;;;;;17.58;11.38;;;;;;;2.76;80.42;101494.44;8172426;35;20202;-76
2022/01/15 16:54:10;;;;;;;17.83;10.10;;;;;;;2.76;80.47;101496.22;8174682;35;21420;-77
2022/01/15 16:59:13;;;;;;;18.42;10.70;;;;;;;2.67;80.59;101491.22;8169693;35;20254;-76
2022/01/15 17:04:16;;;;;;;16.60;10.05;;;;;;;2.65;81.06;101480.63;8167356;35;20463;-77
2022/01/15 17:09:23;;;;;;;18.25;9.40;;;;;;;2.77;80.92;101477.59;8169290;35;21140;-78
2022/01/15 17:14:28;;;;;;;17.67;10.60;;;;;;;2.69;80.76;101461.06;8170000;35;20219;-77
2022/01/15 17:19:31;;;;;;;19.23;10.20;;;;;;;2.58;80.63;101457.88;8170521;35;20179;-76
2022/01/15 17:24:37;;;;;;;19.48;10.95;;;;;;;2.51;80.83;101453.63;8169381;35;20204;-76
2022/01/15 17:29:40;;;;;;;19.23;10.90;;;;;;;2.56;80.82;101457.03;8166265;35;20203;-78
2022/01/15 17:34:45;;;;;;;19.10;11.07;;;;;;;2.51;80.77;101457.13;8171752;35;20278;-77
2022/01/15 17:39:50;;;;;;;22.85;11.38;;;;;;;2.56;80.92;101452.59;8172744;35;20280;-78
2022/01/15 17:44:54;;;;;;;21.48;11.45;;;;;;;2.44;80.88;101447.66;8166676;35;20164;-78
2022/01/15 17:49:57;;;;;;;20.98;9.60;;;;;;;2.44;80.93;101457.38;8170297;35;20191;-78
2022/01/15 17:55:02;;;;;;;22.13;10.80;;;;;;;2.51;80.94;101462.44;8169594;35;20259;-77
2022/01/15 18:00:09;;;;;;;21.20;12.43;;;;;;;2.46;80.96;101458.19;8168732;35;20195;-77
2022/01/15 18:05:12;;;;;;;22.40;11.52;;;;;;;2.43;81.01;101448.53;8166233;35;20203;-77
2022/01/15 18:10:18;;;;;;;20.67;12.48;;;;;;;2.46;81.46;101443.13;8169241;35;20195;-77
2022/01/15 18:15:22;;;;;;;21.95;11.52;;;;;;;2.39;81.22;101455.72;8187533;35;20136;-77
2022/01/15 18:20:25;;;;;;;23.55;13.18;;;;;;;2.44;81.41;101447.66;8168784;35;20270;-77
2022/01/15 18:25:30;;;;;;;18.63;11.82;;;;;;;2.32;81.40;101451.50;8170995;35;20187;-77
2022/01/15 18:30:34;;;;;;;19.08;10.93;;;;;;;2.35;81.69;101448.75;8168115;35;20192;-76
2022/01/15 18:35:40;;;;;;;18.25;11.27;;;;;;;2.41;81.63;101450.38;8168559;35;20363;-77
2022/01/15 18:40:44;;;;;;;18.60;10.68;;;;;;;2.40;81.74;101443.34;8169282;35;20477;-77
2022/01/15 18:45:47;;;;;;;29.02;16.17;;;;;;;2.43;81.60;101442.38;8170169;35;20203;-77
2022/01/15 18:50:51;;;;;;;22.23;11.48;;;;;;;2.33;81.76;101447.97;8171621;35;20191;-77
2022/01/15 18:55:56;;;;;;;18.55;11.18;;;;;;;2.32;81.74;101440.03;8173309;35;20744;-77
2022/01/15 19:00:59;;;;;;;20.65;12.32;;;;;;;2.24;81.77;101442.06;8174241;35;20453;-77
2022/01/15 19:06:03;;;;;;;23.80;12.70;;;;;;;2.31;81.97;101468.34;8174212;35;20666;-76
2022/01/15 19:11:07;;;;;;;19.95;11.50;;;;;;;2.22;82.00;101515.47;8173345;35;20220;-76
2022/01/15 19:16:10;;;;;;;25.20;12.55;;;;;;;2.18;81.94;101554.44;8175106;35;20152;-77
2022/01/15 19:21:14;;;;;;;25.17;12.70;;;;;;;2.15;82.22;101526.25;8175561;35;20339;-77
2022/01/15 19:26:18;;;;;;;25.55;12.80;;;;;;;2.03;82.24;101424.97;8175997;35;20226;-77
2022/01/15 19:31:21;;;;;;;24.98;13.68;;;;;;;2.03;82.00;101372.88;8166082;35;20650;-77
2022/01/15 19:36:25;;;;;;;23.55;12.80;;;;;;;1.97;82.24;101309.41;8173774;35;20705;-77
2022/01/15 19:41:29;;;;;;;26.17;13.02;;;;;;;2.01;82.63;101323.47;8171575;35;20180;-77
2022/01/15 19:46:32;;;;;;;25.05;13.57;;;;;;;1.91;82.71;101366.13;8171100;35;20191;-77
2022/01/15 19:51:35;;;;;;;23.10;12.20;;;;;;;1.83;82.78;101380.50;8170316;35;20203;-76
2022/01/15 19:56:40;;;;;;;30.48;15.20;;;;;;;1.75;83.45;101393.09;8170747;35;20479;-76
2022/01/15 20:01:43;;;;;;;26.30;14.27;;;;;;;1.74;83.62;101386.94;8167908;35;20678;-76
2022/01/15 20:06:49;;;;;;;24.40;12.73;;;;;;;1.75;83.40;101359.53;8172656;35;20234;-78
2022/01/15 20:11:54;;;;;;;26.88;14.18;;;;;;;1.77;83.35;101344.47;8171719;35;20240;-77
2022/01/15 20:17:07;;;;;;;28.73;13.82;;;;;;;1.73;83.44;101334.88;8169511;35;20207;-76
2022/01/15 20:22:10;;;;;;;28.25;15.20;;;;;;;1.70;83.40;101375.56;8172657;35;20204;-76
2022/01/15 20:27:14;;;;;;;28.40;13.73;;;;;;;1.73;83.39;101342.84;8172328;35;20715;-77
2022/01/15 20:32:17;;;;;;;27.10;13.52;;;;;;;1.85;83.35;101357.50;8169671;35;20195;-76
2022/01/15 20:37:24;;;;;;;26.55;13.48;;;;;;;1.79;83.34;101369.16;8170802;35;20214;-76
2022/01/15 20:42:28;;;;;;;27.77;12.70;;;;;;;1.79;83.04;101389.47;8170822;35;20676;-77
2022/01/15 20:47:33;;;;;;;25.95;13.95;;;;;;;1.77;83.29;101356.84;8171592;35;20639;-77
2022/01/15 20:52:37;;;;;;;34.30;13.70;;;;;;;1.65;83.13;101352.78;8169764;35;20564;-77
2022/01/15 20:57:44;;;;;;;26.80;13.68;;;;;;;1.63;83.51;101351.94;8170550;35;20287;-77
2022/01/15 21:02:50;;;;;;;46.15;18.00;;;;;;;1.64;83.65;101330.69;8193055;35;20452;-76
2022/01/15 21:08:00;;;;;;;43.25;17.27;;;;;;;1.48;83.74;101301.16;8203674;35;20202;-76
2022/01/15 21:13:08;;;;;;;34.95;14.95;;;;;;;1.55;84.02;101308.91;8191838;35;21375;-76
2022/01/15 21:18:14;;;;;;;32.42;14.25;;;;;;;1.50;84.13;101307.25;8180662;35;21341;-77
2022/01/15 21:23:17;;;;;;;57.03;16.65;;;;;;;1.52;84.33;101324.91;8167275;35;20263;-77
2022/01/15 21:28:21;;;;;;;68.05;18.15;;;;;;;1.40;84.67;101321.69;8170294;35;20260;-76
2022/01/15 21:33:24;;;;;;;71.50;21.00;;;;;;;1.41;84.71;101323.41;8166889;35;20246;-76
2022/01/15 21:38:29;;;;;;;40.92;14.98;;;;;;;1.42;84.87;101306.59;8169651;35;20195;-76
2022/01/15 21:43:34;;;;;;;40.35;14.85;;;;;;;1.35;85.04;101297.13;8170474;35;21979;-77
2022/01/15 21:48:39;;;;;;;61.25;16.50;;;;;;;1.47;84.92;101301.19;8169315;35;20772;-77
2022/01/15 21:53:42;;;;;;;48.70;13.75;;;;;;;1.46;84.58;101284.44;8177763;35;20274;-78
2022/01/15 21:58:46;;;;;;;27.75;12.15;;;;;;;1.46;85.08;101292.38;8173004;35;20250;-78
2022/01/15 22:03:49;;;;;;;40.67;14.98;;;;;;;1.61;84.74;101291.06;8171165;35;20473;-77
2022/01/15 22:08:55;;;;;;;39.00;15.32;;;;;;;1.56;85.03;101292.09;8170811;35;20243;-77
2022/01/15 22:13:59;;;;;;;26.23;13.00;;;;;;;1.63;84.64;101283.94;8173793;35;20210;-78
2022/01/15 22:19:03;;;;;;;28.52;11.00;;;;;;;1.66;84.61;101275.03;8171222;35;21331;-78
2022/01/15 22:24:06;;;;;;;34.65;13.63;;;;;;;1.62;84.40;101270.72;8172473;35;20219;-77
2022/01/15 22:29:13;;;;;;;81.03;18.30;;;;;;;1.45;84.70;101269.47;8171070;35;20230;-77
2022/01/15 22:34:18;;;;;;;39.33;14.43;;;;;;;1.41;84.73;101277.53;8164514;35;20191;-77
2022/01/15 22:39:24;;;;;;;25.55;11.45;;;;;;;1.44;84.75;101266.84;8165144;35;20604;-77
2022/01/15 22:44:29;;;;;;;28.60;11.13;;;;;;;1.52;84.63;101267.50;8169816;35;20582;-76
2022/01/15 22:49:32;;;;;;;35.35;12.25;;;;;;;1.52;84.62;101271.94;8189000;35;21842;-77
2022/01/15 22:54:35;;;;;;;34.20;14.27;;;;;;;1.53;84.46;101255.97;8169580;35;21088;-76
2022/01/15 22:59:39;;;;;;;29.77;11.80;;;;;;;1.60;84.24;101252.25;8169552;35;20474;-77
2022/01/15 23:04:43;;;;;;;19.40;9.48;;;;;;;1.62;84.16;101236.31;8172604;35;20187;-78
2022/01/15 23:09:46;;;;;;;25.08;10.10;;;;;;;1.57;83.83;101222.34;8171008;35;20199;-77
2022/01/15 23:15:04;;;;;;;22.88;9.52;;;;;;;1.44;83.74;101214.75;8169284;35;20706;-77
2022/01/15 23:20:09;;;;;;;20.02;8.93;;;;;;;1.31;83.73;101228.41;8173229;35;21705;-77
2022/01/15 23:25:12;;;;;;;30.55;10.98;;;;;;;1.25;83.78;101224.16;8171600;35;20183;-77
2022/01/15 23:30:17;;;;;;;24.05;10.43;;;;;;;1.22;83.65;101211.03;8178475;35;20339;-77
2022/01/15 23:35:22;;;;;;;55.85;13.48;;;;;;;1.03;83.90;101208.03;8174902;35;20203;-77
2022/01/15 23:40:25;;;;;;;26.38;10.32;;;;;;;1.13;84.16;101187.47;8173958;35;20231;-76
2022/01/15 23:45:41;;;;;;;19.60;9.02;;;;;;;1.14;83.85;101182.13;8173480;35;20254;-76
2022/01/15 23:50:48;;;;;;;20.55;10.00;;;;;;;0.88;84.45;101168.75;8174114;35;20215;-77
2022/01/15 23:55:55;;;;;;;24.40;9.20;;;;;;;0.86;84.07;101163.53;8173154;35;20963;-77
